Time;durP1;ratioP1;P1;durP2;ratioP2;P2;SDS_P1;SDS_P2;PMS_P1;PMS_P2;Temp;Humidity;BMP_temperature;BMP_pressure;BME280_temperature;BME280_humidity;BME280_pressure;Samples;Min_cycle;Max_cycle;Signal;HPM_P1;HPM_P2
2022/07/24 00:01:12;;;;;;;0.30;0.30;;;;;;;22.21;83.92;100059.47;5010020;28;20219;-71
2022/07/24 00:03:40;;;;;;;0.30;0.30;;;;;;;22.13;83.66;100057.13;5001818;28;20233;-72
2022/07/24 00:06:08;;;;;;;0.20;0.20;;;;;;;22.16;84.07;100072.25;5014818;28;20211;-72
2022/07/24 00:08:37;;;;;;;0.20;0.20;;;;;;;22.06;83.63;100066.38;5018869;28;20204;-72
2022/07/24 00:11:05;;;;;;;0.20;0.20;;;;;;;22.09;83.99;100068.94;5003459;28;20200;-72
2022/07/24 00:13:33;;;;;;;0.22;0.22;;;;;;;22.08;83.63;100067.19;5002039;28;20704;-72
2022/07/24 00:16:01;;;;;;;0.25;0.25;;;;;;;22.11;84.46;100076.97;5007418;28;20200;-72
2022/07/24 00:18:30;;;;;;;0.22;0.22;;;;;;;22.06;83.66;100079.84;5011606;28;20204;-72
2022/07/24 00:20:58;;;;;;;0.30;0.30;;;;;;;22.06;84.41;100078.97;5005063;28;20212;-72
2022/07/24 00:23:27;;;;;;;0.40;0.40;;;;;;;22.04;85.21;100092.50;5007080;28;20228;-72
2022/07/24 00:25:55;;;;;;;0.10;0.10;;;21.70;99.90;;;22.05;84.85;100094.25;5002830;28;20200;-72
2022/07/24 00:28:23;;;;;;;0.10;0.10;;;;;;;21.94;84.68;100089.28;5007634;28;20604;-72
2022/07/24 00:30:52;;;;;;;0.20;0.20;;;;;;;21.96;85.59;100100.00;5006520;28;20207;-72
2022/07/24 00:33:20;;;;;;;0.15;0.15;;;;;;;21.91;85.57;100100.19;5009253;28;20240;-72
2022/07/24 00:35:48;;;;;;;0.28;0.28;;;;;;;21.83;85.28;100088.00;5010745;28;20219;-71
2022/07/24 00:38:16;;;;;;;0.20;0.20;;;;;;;21.91;86.12;100113.66;4997056;28;20232;-72
2022/07/24 00:40:45;;;;;;;0.20;0.20;;;;;;;21.82;85.87;100099.72;5009234;28;20207;-72
2022/07/24 00:43:14;;;;;;;0.10;0.10;;;;;;;21.84;86.75;100108.59;5007115;28;20224;-72
2022/07/24 00:45:43;;;;;;;0.30;0.30;;;;;;;21.67;86.18;100088.66;5003487;28;20215;-72
2022/07/24 00:48:11;;;;;;;0.20;0.20;;;;;;;21.63;86.76;100100.47;5009870;28;20206;-71
2022/07/24 00:50:40;;;;;;;0.10;0.10;;;21.40;99.90;;;21.60;87.78;100118.56;5006927;28;20200;-71
2022/07/24 00:53:08;;;;;;;0.68;0.68;;;;;;;21.48;88.43;100129.84;5015267;28;20604;-72
2022/07/24 00:55:37;;;;;;;0.30;0.30;;;;;;;21.39;88.41;100123.00;5001090;28;20206;-72
2022/07/24 00:58:05;;;;;;;0.20;0.20;;;;;;;21.39;89.21;100136.47;4992404;28;20207;-72
2022/07/24 01:00:33;;;;;;;0.22;0.22;;;;;;;21.47;89.75;100168.44;4999457;28;20207;-71
2022/07/24 01:03:02;;;;;;;0.20;0.20;;;;;;;21.34;90.14;100168.03;5007754;28;20223;-72
2022/07/24 01:05:30;;;;;;;0.50;0.50;;;;;;;21.23;90.13;100162.22;5008607;28;20204;-72
2022/07/24 01:07:58;;;;;;;0.30;0.30;;;;;;;21.19;90.23;100165.94;5018579;28;20213;-71
2022/07/24 01:10:28;;;;;;;0.20;0.20;;;;;;;21.13;90.66;100177.78;5018164;28;20212;-72
2022/07/24 01:12:56;;;;;;;0.40;0.20;;;;;;;21.08;91.13;100183.34;5022299;28;20231;-72
2022/07/24 01:15:24;;;;;;;0.10;0.10;;;;;;;21.07;91.15;100183.41;5012886;28;20201;-72
2022/07/24 01:17:53;;;;;;;0.20;0.20;;;;;;;21.08;91.55;100204.84;5012792;28;20218;-72
2022/07/24 01:20:21;;;;;;;0.38;0.38;;;;;;;21.06;91.52;100211.22;5025670;28;20204;-72
2022/07/24 01:22:49;;;;;;;0.75;0.75;;;;;;;21.04;92.90;100229.22;5020792;28;20220;-72
2022/07/24 01:25:17;;;;;;;0.10;0.10;;;;;;;20.96;92.84;100232.19;5014712;28;20203;-71
2022/07/24 01:27:46;;;;;;;0.03;0.03;;;;;;;20.95;92.86;100238.50;5012945;28;20211;-72
2022/07/24 01:30:14;;;;;;;0.10;0.10;;;;;;;20.88;93.71;100245.03;5002220;28;20200;-72
2022/07/24 01:32:42;;;;;;;0.10;0.10;;;;;;;20.81;93.03;100240.81;5005482;28;20204;-72
2022/07/24 01:35:10;;;;;;;0.10;0.10;;;;;;;20.81;93.63;100248.88;5006119;28;20681;-72
2022/07/24 01:37:53;;;;;;;0.10;0.10;;;20.50;99.90;;;20.76;94.01;100261.56;5013345;28;20200;-72
2022/07/24 01:40:22;;;;;;;0.10;0.10;;;;;;;20.84;93.89;100274.78;5013337;28;20644;-72
2022/07/24 01:42:50;;;;;;;0.15;0.15;;;;;;;20.80;93.19;100268.59;5001467;28;20210;-72
2022/07/24 01:45:19;;;;;;;0.10;0.10;;;;;;;20.73;93.91;100272.44;5011815;28;20200;-72
2022/07/24 01:47:47;;;;;;;0.10;0.10;;;;;;;20.82;93.86;100287.38;5016214;28;20219;-71
2022/07/24 01:50:15;;;;;;;0.10;0.10;;;;;;;20.69;94.93;100289.59;4995070;28;20208;-72
2022/07/24 01:52:43;;;;;;;0.10;0.10;;;;;;;20.66;95.00;100295.97;5002409;28;20208;-72
2022/07/24 01:55:12;;;;;;;0.28;0.28;;;;;;;20.58;94.85;100294.47;4997342;28;20220;-72
2022/07/24 01:57:40;;;;;;;0.10;0.10;;;;;;;20.50;95.66;100304.59;5005175;28;20212;-71
2022/07/24 02:00:12;;;;;;;0.10;0.10;;;20.30;99.90;;;20.50;96.73;100320.72;5011713;28;20204;-72
2022/07/24 02:02:43;;;;;;;0.10;0.10;;;20.30;99.90;;;20.54;96.62;100334.00;5013678;28;20208;-72
2022/07/24 02:05:13;;;;;;;0.10;0.10;;;20.20;99.90;;;20.48;97.08;100344.06;5012409;28;20204;-72
2022/07/24 02:07:43;;;;;;;0.10;0.10;;;20.20;99.90;;;20.39;97.06;100338.06;5012166;28;20574;-72
2022/07/24 02:10:13;;;;;;;0.10;0.10;;;20.10;99.90;;;20.38;97.09;100343.44;5010398;28;20204;-72
2022/07/24 02:12:42;;;;;;;0.08;0.08;;;;;;;20.39;96.73;100354.19;5011227;28;20208;-72
2022/07/24 02:15:10;;;;;;;0.10;0.10;;;;;;;20.35;97.15;100359.66;5010255;28;20239;-71
2022/07/24 02:17:38;;;;;;;0.10;0.10;;;;;;;20.31;96.98;100358.88;5010977;28;20211;-72
2022/07/24 02:20:07;;;;;;;0.00;0.00;;;20.00;99.90;;;20.28;97.81;100367.03;5008714;28;20200;-71
2022/07/24 02:22:37;;;;;;;0.10;0.10;;;;;;;20.21;98.27;100376.22;5011776;28;20208;-72
2022/07/24 02:25:06;;;;;;;0.10;0.10;;;19.90;99.90;;;20.31;98.75;100387.53;5007916;28;20208;-72
2022/07/24 02:27:35;;;;;;;0.00;0.00;;;;;;;20.20;99.25;100398.63;5009515;28;20212;-72
2022/07/24 02:30:11;;;;;;;0.10;0.10;;;20.00;99.90;;;20.19;98.85;100396.00;5008105;28;20211;-72
2022/07/24 02:32:39;;;;;;;0.20;0.20;;;;;;;20.15;98.95;100395.19;5011603;28;20203;-72
2022/07/24 02:35:09;;;;;;;0.10;0.10;;;19.90;99.90;;;20.10;99.66;100403.41;5003942;28;20231;-71
2022/07/24 02:37:42;;;;;;;0.10;0.10;;;19.90;99.90;;;20.13;99.69;100411.38;5009752;28;20204;-72
2022/07/24 02:40:12;;;;;;;0.85;0.85;;;19.90;99.90;;;20.03;100.00;100423.31;5006924;28;20204;-71
2022/07/24 02:42:41;;;;;;;0.13;0.10;;;;;;;20.03;100.00;100420.63;5003315;28;20583;-71
2022/07/24 02:45:10;;;;;;;0.10;0.10;;;20.00;99.90;;;19.98;100.00;100430.63;5011637;28;20219;-72
2022/07/24 02:47:56;;;;;;;0.10;0.10;;;19.80;99.90;;;19.98;100.00;100435.09;5011066;28;20653;-72
2022/07/24 02:50:30;;;;;;;0.10;0.10;;;19.70;99.90;;;20.02;99.96;100447.50;5010769;28;20222;-71
2022/07/24 02:52:58;;;;;;;0.10;0.10;;;;;;;19.94;100.00;100441.47;5011779;28;20233;-72
2022/07/24 02:55:28;;;;;;;0.10;0.10;;;;;;;19.95;100.00;100452.19;5010884;28;20238;-72
2022/07/24 02:57:56;;;;;;;0.00;0.00;;;;;;;19.96;100.00;100458.44;5013106;28;20586;-72
2022/07/24 03:00:25;;;;;;;0.10;0.10;;;;;;;19.99;100.00;100469.06;5008898;28;20206;-72
2022/07/24 03:02:53;;;;;;;0.10;0.10;;;;;;;19.99;100.00;100472.63;5012098;28;20204;-72
2022/07/24 03:05:21;;;;;;;0.10;0.10;;;;;;;19.93;100.00;100475.50;5012836;28;20207;-72
2022/07/24 03:07:50;;;;;;;0.10;0.10;;;;;;;19.85;100.00;100468.59;5003146;28;20189;-72
2022/07/24 03:10:18;;;;;;;0.10;0.10;;;;;;;19.89;100.00;100472.94;5002372;28;20220;-72
2022/07/24 03:12:46;;;;;;;0.10;0.10;;;;;;;19.75;100.00;100471.53;5003190;28;20218;-72
2022/07/24 03:15:15;;;;;;;0.20;0.20;;;;;;;19.79;100.00;100480.38;5018045;28;20233;-72
2022/07/24 03:17:52;;;;;;;0.00;0.00;;;19.50;99.90;;;19.83;100.00;100478.50;5011329;28;20211;-72
2022/07/24 03:20:24;;;;;;;0.10;0.10;;;19.50;99.90;;;19.77;100.00;100482.22;5004588;28;20209;-72
2022/07/24 03:22:53;;;;;;;0.30;0.20;;;;;;;19.66;100.00;100474.47;5015056;28;20214;-72
2022/07/24 03:25:21;;;;;;;0.10;0.10;;;19.40;99.90;;;19.79;100.00;100491.13;5009588;28;20219;-72
2022/07/24 03:27:50;;;;;;;0.10;0.10;;;;;;;19.75;100.00;100497.50;5021898;28;20204;-72
2022/07/24 03:30:18;;;;;;;0.20;0.20;;;;;;;19.72;99.68;100484.16;5011400;28;20200;-72
2022/07/24 03:32:47;;;;;;;0.30;0.20;;;;;;;19.76;100.00;100496.56;5011363;28;20215;-72
2022/07/24 03:35:15;;;;;;;0.15;0.15;;;;;;;19.71;100.00;100495.81;5010166;28;20238;-74
2022/07/24 03:37:43;;;;;;;0.65;0.65;;;;;;;19.63;100.00;100495.13;5004137;28;20211;-74
2022/07/24 03:40:12;;;;;;;0.10;0.10;;;;;;;19.61;100.00;100500.53;5011642;28;20204;-73
2022/07/24 03:42:41;;;;;;;0.10;0.10;;;;;;;19.57;100.00;100506.03;5010413;28;20226;-72
2022/07/24 03:45:09;;;;;;;0.10;0.10;;;19.50;99.90;;;19.54;100.00;100508.81;5008901;28;20215;-74
2022/07/24 03:47:37;;;;;;;0.20;0.20;;;;;;;19.56;100.00;100513.19;5000602;28;20207;-74
2022/07/24 03:50:06;;;;;;;0.10;0.10;;;;;;;19.52;100.00;100515.97;5012414;28;20211;-74
2022/07/24 03:52:34;;;;;;;0.30;0.30;;;;;;;19.46;100.00;100517.84;5009451;28;20200;-74
2022/07/24 03:55:04;;;;;;;0.10;0.10;;;19.20;99.90;;;19.49;100.00;100527.63;5023163;28;20239;-73
2022/07/24 03:57:32;;;;;;;0.20;0.20;;;;;;;19.44;100.00;100527.75;5009783;28;20218;-74
2022/07/24 04:00:01;;;;;;;0.20;0.20;;;;;;;19.49;100.00;100536.56;5007653;28;20661;-74
2022/07/24 04:02:39;;;;;;;0.28;0.28;;;;;;;19.40;100.00;100538.59;5004920;28;20192;-74
2022/07/24 04:05:09;;;;;;;0.10;0.10;;;19.20;99.90;;;19.36;100.00;100558.38;5008117;28;20200;-74
2022/07/24 04:07:37;;;;;;;0.20;0.20;;;;;;;19.32;100.00;100556.69;5008044;28;20214;-73
2022/07/24 04:10:07;;;;;;;0.20;0.20;;;19.10;99.90;;;19.21;100.00;100548.03;5007189;28;20204;-74
2022/07/24 04:12:36;;;;;;;0.13;0.13;;;;;;;19.35;100.00;100576.25;5021129;28;20215;-73
2022/07/24 04:15:04;;;;;;;0.30;0.30;;;19.00;99.90;;;19.18;100.00;100563.25;5006723;28;20238;-74
2022/07/24 04:17:33;;;;;;;0.10;0.10;;;;;;;19.20;100.00;100573.94;5008417;28;20216;-72
2022/07/24 04:20:01;;;;;;;0.20;0.20;;;;;;;19.25;100.00;100566.69;5009453;28;20207;-72
2022/07/24 04:22:29;;;;;;;0.20;0.20;;;;;;;19.32;100.00;100576.34;5002299;28;20208;-72
2022/07/24 04:24:57;;;;;;;0.30;0.30;;;;;;;19.27;100.00;100580.94;5009565;28;20227;-72
2022/07/24 04:27:25;;;;;;;0.30;0.30;;;;;;;19.27;100.00;100586.28;5000425;28;20208;-72
2022/07/24 04:29:54;;;;;;;0.52;0.52;;;;;;;19.29;100.00;100584.44;5009779;28;20207;-72
2022/07/24 04:32:22;;;;;;;0.30;0.30;;;;;;;19.31;100.00;100605.88;5018044;28;20201;-72
2022/07/24 04:34:50;;;;;;;0.40;0.40;;;;;;;19.31;100.00;100609.44;5004416;28;20232;-72
2022/07/24 04:37:18;;;;;;;0.35;0.35;;;;;;;19.38;100.00;100624.47;5013167;28;20672;-72
2022/07/24 04:39:47;;;;;;;0.20;0.20;;;;;;;19.35;100.00;100623.66;5006910;28;20204;-72
2022/07/24 04:42:15;;;;;;;0.40;0.40;;;;;;;19.27;100.00;100629.19;5003352;28;20584;-72
2022/07/24 04:44:43;;;;;;;0.20;0.20;;;;;;;19.29;100.00;100618.44;5003851;28;20240;-72
2022/07/24 04:47:11;;;;;;;0.28;0.28;;;;;;;19.37;100.00;100643.25;5010607;28;20207;-71
2022/07/24 04:49:40;;;;;;;0.28;0.28;;;;;;;19.37;100.00;100644.16;5008352;28;20207;-72
2022/07/24 04:52:08;;;;;;;0.28;0.25;;;;;;;19.44;100.00;100648.44;5005211;28;20196;-72
2022/07/24 04:54:36;;;;;;;0.35;0.35;;;;;;;19.48;100.00;100652.81;4999646;28;20232;-72
2022/07/24 04:57:04;;;;;;;0.20;0.20;;;;;;;19.47;100.00;100652.84;4996710;28;20212;-72
2022/07/24 04:59:32;;;;;;;0.20;0.20;;;;;;;19.54;100.00;100659.03;5004399;28;20204;-71
2022/07/24 05:02:01;;;;;;;0.20;0.20;;;;;;;19.52;100.00;100672.47;5006124;28;20203;-71
2022/07/24 05:04:29;;;;;;;0.20;0.20;;;;;;;19.61;100.00;100679.41;5001180;28;20328;-72
2022/07/24 05:06:57;;;;;;;0.17;0.17;;;;;;;19.67;100.00;100687.31;4999706;28;20212;-72
2022/07/24 05:09:26;;;;;;;0.30;0.30;;;;;;;19.70;100.00;100693.50;5010779;28;20214;-72
2022/07/24 05:11:54;;;;;;;0.10;0.10;;;;;;;19.77;100.00;100686.16;4997983;28;20208;-71
2022/07/24 05:14:22;;;;;;;0.10;0.10;;;;;;;19.86;100.00;100694.00;5009077;28;20230;-72
2022/07/24 05:16:51;;;;;;;0.10;0.10;;;;;;;19.95;100.00;100688.41;5004878;28;20215;-72
2022/07/24 05:19:19;;;;;;;0.10;0.10;;;;;;;20.03;100.00;100689.06;5006608;28;20201;-72
2022/07/24 05:21:47;;;;;;;0.17;0.17;;;;;;;20.09;99.90;100683.53;5005305;28;20222;-72
2022/07/24 05:24:15;;;;;;;0.10;0.10;;;;;;;20.18;100.00;100703.03;5010288;28;20234;-72
2022/07/24 05:26:43;;;;;;;0.10;0.10;;;;;;;20.20;100.00;100704.75;5007887;28;20211;-71
2022/07/24 05:29:12;;;;;;;0.10;0.10;;;;;;;20.30;100.00;100711.66;5008851;28;20193;-71
2022/07/24 05:31:40;;;;;;;0.10;0.10;;;;;;;20.35;99.09;100701.66;5005883;28;20218;-72
2022/07/24 05:34:09;;;;;;;0.10;0.10;;;20.10;99.90;;;20.39;99.95;100708.75;5001864;28;20227;-72
2022/07/24 05:36:37;;;;;;;0.10;0.10;;;;;;;20.49;99.30;100703.13;5001106;28;20244;-72
2022/07/24 05:39:06;;;;;;;0.10;0.10;;;;;;;20.60;98.62;100704.59;5000743;28;20279;-71
2022/07/24 05:41:35;;;;;;;0.10;0.10;;;;;;;20.63;99.78;100709.88;5006355;28;20215;-71
2022/07/24 05:44:03;;;;;;;0.10;0.10;;;;;;;20.67;98.58;100703.50;5009109;28;20227;-72
2022/07/24 05:46:31;;;;;;;0.20;0.20;;;;;;;20.73;98.30;100697.06;5003076;28;20212;-72
2022/07/24 05:49:00;;;;;;;0.10;0.10;;;;;;;20.81;98.08;100699.56;4996294;28;20205;-71
2022/07/24 05:51:29;;;;;;;0.20;0.20;;;;;;;20.87;97.00;100692.19;5025435;28;20207;-72
2022/07/24 05:53:57;;;;;;;0.10;0.10;;;;;;;20.95;97.68;100703.59;5009648;28;20224;-71
2022/07/24 05:56:25;;;;;;;0.13;0.13;;;;;;;20.98;98.11;100716.09;4993451;28;20233;-72
2022/07/24 05:58:54;;;;;;;0.10;0.10;;;;;;;21.04;97.84;100719.47;5000902;28;20653;-72
2022/07/24 06:01:22;;;;;;;0.10;0.10;;;;;;;21.09;97.84;100724.72;5005680;28;20219;-72
2022/07/24 06:03:50;;;;;;;0.10;0.10;;;;;;;21.21;97.26;100729.72;4993020;28;20235;-71
2022/07/24 06:06:18;;;;;;;0.10;0.10;;;;;;;21.16;96.39;100704.78;5005603;28;20207;-72
2022/07/24 06:08:47;;;;;;;0.38;0.38;;;;;;;21.31;96.81;100720.47;5008079;28;20204;-72
2022/07/24 06:11:17;;;;;;;0.10;0.10;;;;;;;21.36;96.68;100723.03;5005563;28;20200;-71
2022/07/24 06:13:46;;;;;;;0.70;0.70;;;;;;;21.40;96.09;100724.69;5001484;28;20239;-72
2022/07/24 06:16:14;;;;;;;0.10;0.10;;;;;;;21.63;95.77;100732.06;5012926;28;20232;-72
2022/07/24 06:18:42;;;;;;;0.10;0.10;;;;;;;21.61;95.44;100718.66;5021118;28;20251;-72
2022/07/24 06:21:11;;;;;;;0.10;0.10;;;;;;;21.89;95.08;100737.47;5013366;28;20204;-71
2022/07/24 06:23:39;;;;;;;0.10;0.10;;;;;;;21.86;96.69;100747.47;5027793;28;20231;-71
2022/07/24 06:26:07;;;;;;;0.10;0.10;;;;;;;21.97;96.11;100748.88;5014067;28;20211;-71
2022/07/24 06:28:35;;;;;;;0.20;0.20;;;;;;;21.96;93.62;100724.69;5013798;28;20226;-71
2022/07/24 06:31:04;;;;;;;0.38;0.38;;;;;;;22.28;92.94;100729.06;5010132;28;20215;-71
2022/07/24 06:33:32;;;;;;;0.15;0.15;;;;;;;22.22;91.63;100697.81;4993584;28;20221;-72
2022/07/24 06:36:00;;;;;;;0.30;0.30;;;;;;;22.32;92.26;100706.47;5001840;28;20228;-71
2022/07/24 06:38:29;;;;;;;0.30;0.30;;;;;;;22.45;91.97;100715.88;5028470;28;20211;-72
2022/07/24 06:40:57;;;;;;;0.17;0.17;;;;;;;22.62;93.18;100717.97;5012811;28;20208;-72
2022/07/24 06:43:25;;;;;;;4.72;0.68;;;;;;;22.78;91.58;100711.06;5011387;28;20227;-72
2022/07/24 06:45:53;;;;;;;0.35;0.20;;;;;;;22.81;90.33;100697.50;4996972;28;20201;-72
2022/07/24 06:48:21;;;;;;;0.32;0.32;;;22.70;99.90;;;22.82;89.46;100687.59;5010553;28;20648;-71
2022/07/24 06:50:50;;;;;;;0.20;0.20;;;;;;;22.94;90.53;100684.44;5011506;28;20211;-71
2022/07/24 06:53:18;;;;;;;0.20;0.20;;;;;;;23.11;89.83;100686.50;5000888;28;20220;-72
2022/07/24 06:55:47;;;;;;;0.20;0.20;;;;;;;23.04;88.88;100655.31;5002706;28;20228;-72
2022/07/24 06:58:15;;;;;;;1.08;1.08;;;;;;;23.21;90.69;100686.09;5000931;28;20223;-72
2022/07/24 07:00:43;;;;;;;0.40;0.30;;;;;;;23.37;89.07;100672.88;5007031;28;20204;-72
2022/07/24 07:03:11;;;;;;;0.28;0.28;;;;;;;23.20;86.21;100630.38;4996087;28;20219;-72
2022/07/24 07:05:39;;;;;;;0.30;0.30;;;;;;;23.66;85.99;100649.28;4997790;28;20208;-71
2022/07/24 07:08:07;;;;;;;0.20;0.20;;;;;;;23.84;84.88;100645.78;4995019;28;20204;-72
2022/07/24 07:10:36;;;;;;;0.20;0.20;;;;;;;23.49;84.20;100590.53;5006715;28;20212;-72
2022/07/24 07:13:04;;;;;;;0.30;0.30;;;;;;;23.70;87.35;100637.41;4992969;28;20677;-71
2022/07/24 07:15:32;;;;;;;0.20;0.20;;;;;;;23.69;87.92;100641.91;5001487;28;20204;-71
2022/07/24 07:18:00;;;;;;;0.20;0.20;;;;;;;23.74;85.16;100610.19;5011488;28;20199;-72
2022/07/24 07:20:29;;;;;;;0.20;0.20;;;;;;;24.07;84.42;100625.91;5007253;28;20218;-71
2022/07/24 07:22:57;;;;;;;0.40;0.20;;;;;;;24.16;83.10;100593.94;5001163;28;20214;-71
2022/07/24 07:25:26;;;;;;;0.20;0.20;;;;;;;24.37;84.33;100613.75;5007855;28;20675;-72
2022/07/24 07:27:55;;;;;;;0.28;0.28;;;;;;;24.30;82.86;100582.56;5007982;28;20227;-72
2022/07/24 07:30:23;;;;;;;0.25;0.25;;;;;;;25.03;84.00;100635.13;5005610;28;20207;-72
2022/07/24 07:32:51;;;;;;;0.45;0.25;;;;;;;25.57;80.68;100590.94;5012046;28;20206;-72
2022/07/24 07:35:21;;;;;;;0.30;0.30;;;;;;;24.52;82.40;100501.34;5007250;28;20204;-71
2022/07/24 07:37:55;;;;;;;0.50;0.50;;;;;;;24.21;83.01;100481.13;5008585;28;20214;-72
2022/07/24 07:40:24;;;;;;;0.40;0.40;;;;;;;24.16;83.18;100479.59;5005512;28;20203;-71
2022/07/24 07:42:58;;;;;;;0.22;0.22;;;;;;;24.97;81.65;100547.00;5013182;28;20202;-72
2022/07/24 07:45:26;;;;;;;0.52;0.40;;;;;;;25.63;79.75;100558.13;5010409;28;20354;-71
2022/07/24 07:47:59;;;;;;;0.82;0.50;;;;;;;25.44;80.23;100541.94;5021748;28;20208;-71
2022/07/24 07:50:27;;;;;;;0.73;0.50;;;;;;;25.61;80.62;100553.72;4999329;28;20679;-71
2022/07/24 07:52:56;;;;;;;0.63;0.50;;;;;;;25.36;79.43;100506.25;5023081;28;20215;-72
2022/07/24 07:55:24;;;;;;;0.20;0.20;;;;;;;25.65;80.05;100533.66;5011467;28;20223;-72
2022/07/24 07:57:52;;;;;;;0.22;0.20;;;;;;;25.52;78.49;100473.84;5004313;28;20738;-72
2022/07/24 08:00:36;;;;;;;0.75;0.55;;;;;;;25.75;79.23;100503.34;5011235;28;20671;-72
2022/07/24 08:03:04;;;;;;;0.38;0.30;;;;;;;25.07;79.53;100418.41;5008086;28;20227;-72
2022/07/24 08:05:32;;;;;;;0.77;0.73;;;;;;;26.06;80.90;100539.69;5001209;28;20212;-73
2022/07/24 08:08:01;;;;;;;0.65;0.50;;;;;;;26.15;77.21;100480.44;4999047;28;20206;-71
2022/07/24 08:10:29;;;;;;;1.50;0.93;;;;;;;25.71;79.46;100446.69;5003582;28;20210;-72
2022/07/24 08:12:57;;;;;;;1.15;0.70;;;27.30;99.90;;;26.71;79.95;100557.81;5003806;28;20222;-72
2022/07/24 08:15:25;;;;;;;0.93;0.73;;;;;;;27.17;77.34;100489.19;5001468;28;20203;-72
2022/07/24 08:17:58;;;;;;;0.60;0.50;;;27.50;99.90;;;26.74;78.67;100459.09;5000650;28;20235;-72
2022/07/24 08:20:27;;;;;;;0.80;0.63;;;27.70;99.90;;;27.04;76.94;100475.47;5001654;28;20208;-71
2022/07/24 08:22:56;;;;;;;1.15;0.70;;;;;;;26.21;77.86;100381.63;5009332;28;20238;-71
2022/07/24 08:25:26;;;;;;;0.82;0.60;;;;;;;26.18;77.71;100386.34;5010200;28;20610;-71
2022/07/24 08:27:55;;;;;;;0.60;0.50;;;28.40;99.90;;;27.67;75.77;100497.09;5008742;28;20199;-72
2022/07/24 08:30:25;;;;;;;1.75;0.90;;;;;;;27.33;74.90;100414.91;5010432;28;20218;-72
2022/07/24 08:32:53;;;;;;;1.85;1.55;;;28.50;99.90;;;27.51;74.94;100428.34;5007749;28;20231;-73
2022/07/24 08:35:23;;;;;;;0.13;0.13;;;;;;;27.45;73.91;100382.53;5008581;28;20207;-72
2022/07/24 08:37:59;;;;;;;0.30;0.30;;;28.60;99.90;;;27.86;73.26;100394.44;5007187;28;20249;-72
2022/07/24 08:40:38;;;;;;;0.57;0.40;;;28.70;99.90;;;27.32;73.79;100328.09;5006124;28;20561;-72
2022/07/24 08:43:08;;;;;;;1.23;0.80;;;28.70;99.90;;;27.23;74.01;100321.38;5004768;28;20223;-72
2022/07/24 08:45:41;;;;;;;2.65;2.08;;;28.60;99.90;;;27.49;73.54;100344.22;5008293;28;20208;-72
2022/07/24 08:48:11;;;;;;;1.40;0.80;;;29.00;99.90;;;29.18;72.89;100468.38;4999980;28;20220;-72
2022/07/24 08:50:42;;;;;;;0.40;0.30;;;29.90;99.90;;;28.94;70.19;100346.56;5006150;28;20218;-72
2022/07/24 08:53:10;;;;;;;0.00;0.00;;;;;;;27.60;72.08;100224.00;5009853;28;20234;-72
2022/07/24 08:55:39;;;;;;;0.00;0.00;;;;;;;27.98;72.46;100279.50;5007957;28;20191;-72
2022/07/24 08:58:07;;;;;;;0.03;0.03;;;;;;;27.80;73.69;100261.66;5004361;28;20236;-72
2022/07/24 09:00:35;;;;;;;0.00;0.00;;;28.30;99.90;;;27.62;75.10;100263.72;5009945;28;20214;-70
2022/07/24 09:03:03;;;;;;;0.00;0.00;;;;;;;27.33;73.94;100210.38;5006194;28;20238;-69
2022/07/24 09:05:34;;;;;;;0.00;0.00;;;;;;;28.20;73.19;100292.53;5005778;28;20210;-69
2022/07/24 09:08:10;;;;;;;0.10;0.10;;;29.20;99.90;;;28.34;72.50;100276.22;5003231;28;20207;-70
2022/07/24 09:10:40;;;;;;;0.00;0.00;;;28.70;99.90;;;28.57;73.59;100310.03;4994133;28;20208;-70
2022/07/24 09:13:14;;;;;;;0.10;0.10;;;30.00;99.90;;;28.41;70.77;100222.25;5009655;28;20219;-69
2022/07/24 09:15:47;;;;;;;0.00;0.00;;;29.80;99.90;;;28.22;72.55;100217.16;5007790;28;20202;-70
2022/07/24 09:18:34;;;;;;;0.00;0.00;;;30.30;99.90;;;29.15;69.79;100253.47;5008528;28;20235;-72
2022/07/24 09:21:13;;;;;;;0.00;0.00;;;30.30;99.90;;;29.31;71.16;100271.31;5006533;28;20215;-72
2022/07/24 09:23:44;;;;;;;0.00;0.00;;;31.00;99.90;;;29.35;69.79;100203.88;5004668;28;20263;-72
2022/07/24 09:26:12;;;;;;;0.00;0.00;;;30.20;99.90;;;28.49;71.06;100153.72;5007398;28;20203;-72
2022/07/24 09:28:53;;;;;;;0.00;0.00;;;30.00;99.90;;;28.23;72.36;100147.38;5005933;28;20199;-72
2022/07/24 09:31:22;;;;;;;0.00;0.00;;;;;;;30.05;69.87;100291.47;5002316;28;20199;-72
2022/07/24 09:33:51;;;;;;;0.20;0.20;;;32.10;99.90;;;29.76;69.21;100219.06;5006100;28;20219;-72
2022/07/24 09:36:20;;;;;;;0.00;0.00;;;31.10;99.90;;;29.05;69.20;100113.50;5008228;28;20563;-72
2022/07/24 09:38:51;;;;;;;0.85;0.55;;;30.20;99.90;;;28.50;69.87;100066.56;5024045;28;20231;-71
2022/07/24 09:41:22;;;;;;;0.10;0.10;;;30.50;99.90;;;29.52;69.00;100154.50;5009237;28;20215;-71
2022/07/24 09:44:02;;;;;;;0.10;0.10;;;31.20;99.90;;;29.28;69.00;100112.69;5003900;28;20695;-72
2022/07/24 09:47:11;;;;;;;0.55;0.55;;;30.80;99.90;;;30.30;70.95;100235.06;5022636;28;20200;-72
2022/07/24 09:49:40;;;;;;;0.10;0.10;;;32.20;99.90;;;31.06;67.49;100194.50;5007509;28;20211;-71
2022/07/24 09:52:12;;;;;;;0.10;0.10;;;32.20;99.90;;;30.56;67.35;100122.91;5010764;28;20582;-72
2022/07/24 09:54:50;;;;;;;0.10;0.10;;;32.00;99.90;;;29.87;68.33;100042.81;5002556;28;20715;-72
2022/07/24 09:57:29;;;;;;;0.10;0.10;;;31.30;99.90;;;29.67;69.02;100054.38;5013072;28;20235;-72
2022/07/24 10:00:01;;;;;;;0.00;0.00;;;31.50;99.90;;;30.69;68.15;100130.16;5008422;28;20210;-72
2022/07/24 10:02:33;;;;;;;0.03;0.03;;;32.50;99.90;;;30.18;67.09;100044.09;5010222;28;20211;-72
2022/07/24 10:05:05;;;;;;;0.00;0.00;;;32.90;99.90;;;30.94;69.31;100156.38;5003183;28;20220;-72
2022/07/24 10:07:34;;;;;;;0.28;0.28;;;33.10;99.90;;;31.80;68.75;100214.06;5005176;28;20203;-72
2022/07/24 10:10:02;;;;;;;0.20;0.20;;;33.20;99.90;;;31.08;63.75;99981.34;5014976;28;20686;-72
2022/07/24 10:12:31;;;;;;;0.70;0.52;;;35.00;99.90;;;32.35;64.16;100097.25;5012756;28;20207;-72
2022/07/24 10:15:01;;;;;;;1.67;0.90;;;35.20;99.90;;;33.02;63.90;100141.53;5011309;28;20227;-72
2022/07/24 10:17:41;;;;;;;0.10;0.10;;;34.80;99.90;;;31.36;64.34;99958.09;5015289;28;20235;-71
2022/07/24 10:20:12;;;;;;;0.40;0.30;;;34.20;99.90;;;31.31;67.19;100004.94;5013925;28;20220;-71
2022/07/24 10:23:04;;;;;;;1.40;0.88;;;34.10;99.90;;;31.49;66.14;100000.66;5018127;28;20251;-72
2022/07/24 10:26:05;;;;;;;0.20;0.20;;;34.00;99.90;;;31.53;67.05;99995.78;5012871;28;20206;-72
2022/07/24 10:28:43;;;;;;;0.00;0.00;;;34.50;99.90;;;32.36;65.26;100060.66;4999903;28;20207;-72
2022/07/24 10:31:16;;;;;;;0.03;0.03;;;35.00;99.90;;;32.08;65.51;100011.06;5010437;28;20206;-72
2022/07/24 10:33:52;;;;;;;0.00;0.00;;;35.70;99.90;;;32.30;63.18;99985.47;5006920;28;20238;-72
2022/07/24 10:36:29;;;;;;;0.00;0.00;;;35.70;99.60;;;33.21;63.67;100063.13;5007262;28;20208;-72
2022/07/24 10:39:12;;;;;;;0.20;0.10;;;36.00;98.90;;;32.89;61.56;99929.97;5025232;28;20237;-72
2022/07/24 10:41:40;;;;;;;0.38;0.38;;;;;;;32.04;63.05;99864.63;5026445;28;20234;-72
2022/07/24 10:44:18;;;;;;;0.00;0.00;;;34.50;95.90;;;31.92;65.20;99914.94;5020447;28;20227;-72
2022/07/24 10:47:12;;;;;;;0.00;0.00;;;35.50;99.60;;;33.86;60.47;99968.47;5011958;28;20237;-72
2022/07/24 10:49:41;;;;;;;0.00;0.00;;;35.10;98.30;;;32.24;63.40;99900.31;5004068;28;20203;-71
2022/07/24 10:52:32;;;;;;;0.00;0.00;;;35.20;97.00;;;33.42;63.61;99976.22;5012899;28;20210;-72
2022/07/24 10:55:23;;;;;;;0.00;0.00;;;35.60;96.60;;;33.06;63.46;99933.91;5009372;28;20231;-72
2022/07/24 10:58:09;;;;;;;0.00;0.00;;;34.80;96.80;;;32.54;62.28;99859.25;5006902;28;20704;-72
2022/07/24 11:00:50;;;;;;;0.00;0.00;;;36.00;98.30;;;34.86;63.61;100070.41;5006662;28;20202;-72
2022/07/24 11:03:24;;;;;;;0.10;0.10;;;36.50;94.20;;;33.25;60.01;99820.69;5008369;28;20235;-73
2022/07/24 11:06:07;;;;;;;0.00;0.00;;;35.20;93.70;;;33.09;61.00;99855.03;5006567;28;20198;-71
2022/07/24 11:08:51;;;;;;;0.15;0.15;;;35.80;95.20;;;34.07;59.79;99907.94;5010130;28;20222;-71
2022/07/24 11:11:24;;;;;;;0.13;0.13;;;36.30;90.70;;;33.17;58.68;99765.75;5008276;28;20207;-71
2022/07/24 11:14:01;;;;;;;0.30;0.30;;;35.90;91.80;;;33.51;60.18;99829.19;5011161;28;20225;-72